createdAt,value
2022-10-28T00:01:10.387Z,16.63
2022-10-28T00:03:39.626Z,16.32
2022-10-28T00:06:08.641Z,16.54
2022-10-28T00:08:36.010Z,16.41
2022-10-28T00:11:08.181Z,16.61
2022-10-28T00:13:35.679Z,16.70
2022-10-28T00:16:14.113Z,16.58
2022-10-28T00:18:41.767Z,16.40
2022-10-28T00:21:14.606Z,16.65
2022-10-28T00:23:42.262Z,16.83
2022-10-28T00:26:10.645Z,16.48
2022-10-28T00:28:58.750Z,16.43
2022-10-28T00:31:27.031Z,16.66
2022-10-28T00:33:54.496Z,16.38
2022-10-28T00:36:26.540Z,15.70
2022-10-28T00:38:55.215Z,16.06
2022-10-28T00:41:26.099Z,16.48
2022-10-28T00:43:55.537Z,16.09
2022-10-28T00:46:41.203Z,16.28
2022-10-28T00:49:19.139Z,16.26
2022-10-28T00:51:46.965Z,16.22
2022-10-28T00:54:14.728Z,16.33
2022-10-28T00:56:46.517Z,16.28
2022-10-28T00:59:18.789Z,16.22
2022-10-28T01:01:46.487Z,16.22
2022-10-28T01:04:14.085Z,16.27
2022-10-28T01:06:41.412Z,16.37
2022-10-28T01:09:09.069Z,16.41
2022-10-28T01:11:44.294Z,16.45
2022-10-28T01:14:20.826Z,16.49
2022-10-28T01:17:31.346Z,16.54
2022-10-28T01:20:34.890Z,16.48
2022-10-28T01:23:28.060Z,16.48
2022-10-28T01:26:14.297Z,16.48
2022-10-28T01:28:53.421Z,16.69
2022-10-28T01:31:31.324Z,16.62
2022-10-28T01:34:49.422Z,16.61
2022-10-28T01:37:21.007Z,15.96
2022-10-28T01:39:54.190Z,15.89
2022-10-28T01:42:38.718Z,16.17
2022-10-28T01:45:25.822Z,15.88
2022-10-28T01:47:55.685Z,16.01
2022-10-28T01:50:37.331Z,15.08
2022-10-28T01:53:07.735Z,15.71
2022-10-28T01:55:37.719Z,16.09
2022-10-28T01:58:05.489Z,15.78
2022-10-28T02:00:33.324Z,16.02
2022-10-28T02:03:00.986Z,16.13
2022-10-28T02:05:44.366Z,16.22
2022-10-28T02:08:18.055Z,15.98
2022-10-28T02:11:18.290Z,15.47
2022-10-28T02:13:55.530Z,15.64
2022-10-28T02:16:41.533Z,15.76
2022-10-28T02:19:09.359Z,15.33
2022-10-28T02:21:59.563Z,15.86
2022-10-28T02:24:46.467Z,15.01
2022-10-28T02:27:35.615Z,15.48
2022-10-28T02:30:07.550Z,15.63
2022-10-28T02:32:40.024Z,15.92
2022-10-28T02:35:10.416Z,15.75
2022-10-28T02:37:37.728Z,16.06
2022-10-28T02:40:07.144Z,15.96
2022-10-28T02:42:37.188Z,16.06
2022-10-28T02:45:25.709Z,16.12
2022-10-28T02:47:58.038Z,16.23
2022-10-28T02:50:29.281Z,15.94
2022-10-28T02:52:58.759Z,15.96
2022-10-28T02:55:28.953Z,16.17
2022-10-28T02:57:56.689Z,16.05
2022-10-28T03:00:25.018Z,15.86
2022-10-28T03:02:52.356Z,16.07
2022-10-28T03:05:20.778Z,15.80
2022-10-28T03:07:48.122Z,15.94
2022-10-28T03:10:15.660Z,15.88
2022-10-28T03:12:43.264Z,15.85
2022-10-28T03:15:11.039Z,16.10
2022-10-28T03:17:38.369Z,16.29
2022-10-28T03:20:06.394Z,16.39
2022-10-28T03:22:33.728Z,15.79
2022-10-28T03:25:01.058Z,14.81
2022-10-28T03:27:28.655Z,15.23
2022-10-28T03:29:55.998Z,15.51
2022-10-28T03:32:23.332Z,15.63
2022-10-28T03:34:50.948Z,15.73
2022-10-28T03:37:18.286Z,15.91
2022-10-28T03:39:45.602Z,15.79
2022-10-28T03:42:13.221Z,15.84
2022-10-28T03:44:40.545Z,16.20
2022-10-28T03:47:07.896Z,15.61
2022-10-28T03:49:35.479Z,15.70
2022-10-28T03:52:04.061Z,15.89
2022-10-28T03:54:31.400Z,15.77
2022-10-28T03:56:58.971Z,15.46
2022-10-28T03:59:26.278Z,15.85
2022-10-28T04:01:53.721Z,14.93
2022-10-28T04:04:21.474Z,15.65
2022-10-28T04:06:48.809Z,15.93
2022-10-28T04:09:16.125Z,15.24
2022-10-28T04:11:43.723Z,15.43
2022-10-28T04:14:11.066Z,15.47
2022-10-28T04:16:38.395Z,15.90
2022-10-28T04:19:05.994Z,15.79
2022-10-28T04:21:33.417Z,15.59
2022-10-28T04:24:00.730Z,15.22
2022-10-28T04:26:28.342Z,15.65
2022-10-28T04:28:55.686Z,15.79
2022-10-28T04:31:23.034Z,15.85
2022-10-28T04:33:50.973Z,15.32
2022-10-28T04:36:19.162Z,15.46
2022-10-28T04:38:46.519Z,14.84
2022-10-28T04:41:14.484Z,15.16
2022-10-28T04:43:41.788Z,14.81
2022-10-28T04:46:09.208Z,15.21
2022-10-28T04:48:36.883Z,15.39
2022-10-28T04:51:04.342Z,15.45
2022-10-28T04:53:31.709Z,15.55
2022-10-28T04:55:59.442Z,15.49
2022-10-28T04:58:26.785Z,14.54
2022-10-28T05:00:54.110Z,14.59
2022-10-28T05:03:21.725Z,14.12
2022-10-28T05:05:49.080Z,14.74
2022-10-28T05:08:16.416Z,15.12
2022-10-28T05:10:45.181Z,15.29
2022-10-28T05:13:12.494Z,15.33
2022-10-28T05:15:39.829Z,14.05
2022-10-28T05:18:07.506Z,14.29
2022-10-28T05:20:34.849Z,14.22
2022-10-28T05:23:02.192Z,14.71
2022-10-28T05:25:29.800Z,14.76
2022-10-28T05:28:00.243Z,14.40
2022-10-28T05:30:27.978Z,14.62
2022-10-28T05:33:01.001Z,14.74
2022-10-28T05:35:29.358Z,14.57
2022-10-28T05:37:56.997Z,14.74
2022-10-28T05:40:24.492Z,15.15
2022-10-28T05:42:52.100Z,15.24
2022-10-28T05:45:20.026Z,15.35
2022-10-28T05:47:48.287Z,15.44
2022-10-28T05:50:17.572Z,15.43
2022-10-28T05:52:49.435Z,15.43
2022-10-28T05:55:19.480Z,15.65
2022-10-28T05:57:47.643Z,15.62
2022-10-28T06:00:15.190Z,15.54
2022-10-28T06:02:42.943Z,15.85
2022-10-28T06:05:12.048Z,15.48
2022-10-28T06:07:39.807Z,15.64
2022-10-28T06:10:08.516Z,15.86
2022-10-28T06:12:36.868Z,15.77
2022-10-28T06:15:04.466Z,15.84
2022-10-28T06:17:32.143Z,15.64
2022-10-28T06:19:59.511Z,15.52
2022-10-28T06:22:26.902Z,15.76
2022-10-28T06:24:54.505Z,15.57
2022-10-28T06:27:21.856Z,15.94
2022-10-28T06:29:49.199Z,15.23
2022-10-28T06:32:16.784Z,15.61
2022-10-28T06:34:44.106Z,15.94
2022-10-28T06:37:12.679Z,15.91
2022-10-28T06:39:42.000Z,15.99
2022-10-28T06:42:09.349Z,15.85
2022-10-28T06:44:36.668Z,15.92
2022-10-28T06:47:05.833Z,15.99
2022-10-28T06:49:33.232Z,16.08
2022-10-28T06:52:00.950Z,15.88
2022-10-28T06:54:28.659Z,16.06
2022-10-28T06:56:56.003Z,16.18
2022-10-28T06:59:23.353Z,16.31
2022-10-28T07:01:51.057Z,16.06
2022-10-28T07:04:18.496Z,16.25
2022-10-28T07:06:48.583Z,15.77
2022-10-28T07:09:18.933Z,15.94
2022-10-28T07:11:52.154Z,15.96
2022-10-28T07:14:21.335Z,16.39
2022-10-28T07:16:48.661Z,16.53
2022-10-28T07:19:19.024Z,16.04
2022-10-28T07:21:49.377Z,16.06
2022-10-28T07:24:16.748Z,16.20
2022-10-28T07:26:44.129Z,15.98
2022-10-28T07:29:11.703Z,16.20
2022-10-28T07:31:38.998Z,16.06
2022-10-28T07:34:06.361Z,16.42
2022-10-28T07:36:34.003Z,16.39
2022-10-28T07:39:03.771Z,16.31
2022-10-28T07:41:31.313Z,16.51
2022-10-28T07:43:58.931Z,16.11
2022-10-28T07:46:26.271Z,16.74
2022-10-28T07:48:53.625Z,16.61
2022-10-28T07:51:21.251Z,16.48
2022-10-28T07:53:48.674Z,16.39
2022-10-28T07:56:16.203Z,16.56
2022-10-28T07:58:44.371Z,16.81
2022-10-28T08:01:14.477Z,16.36
2022-10-28T08:03:42.188Z,16.57
2022-10-28T08:06:13.249Z,16.57
2022-10-28T08:08:40.678Z,16.84
2022-10-28T08:11:22.652Z,17.01
2022-10-28T08:13:50.901Z,16.99
2022-10-28T08:16:18.587Z,16.88
2022-10-28T08:18:46.201Z,16.79
2022-10-28T08:21:13.632Z,16.78
2022-10-28T08:23:41.769Z,16.81
2022-10-28T08:26:09.105Z,17.07
2022-10-28T08:28:36.491Z,16.57
2022-10-28T08:31:08.573Z,16.71
2022-10-28T08:33:37.969Z,16.79
2022-10-28T08:36:09.610Z,16.52
2022-10-28T08:38:39.567Z,16.74
2022-10-28T08:41:46.745Z,16.72
2022-10-28T08:44:34.844Z,16.19
2022-10-28T08:47:21.348Z,15.95
2022-10-28T08:49:49.500Z,16.55
2022-10-28T08:52:38.122Z,16.34
2022-10-28T08:55:07.992Z,14.72
2022-10-28T08:57:40.753Z,15.34
2022-10-28T09:00:20.372Z,15.60
2022-10-28T09:02:53.952Z,15.91
2022-10-28T09:05:22.952Z,16.43
2022-10-28T09:07:50.701Z,16.52
2022-10-28T09:10:20.090Z,16.67
2022-10-28T09:13:11.647Z,16.76
2022-10-28T09:18:22.992Z,17.03
2022-10-28T09:20:55.723Z,17.12
2022-10-28T09:23:57.798Z,17.20
2022-10-28T09:26:40.364Z,17.20
2022-10-28T09:29:18.119Z,17.25
2022-10-28T09:31:47.564Z,16.69
2022-10-28T09:34:34.176Z,16.73
2022-10-28T09:37:11.273Z,17.18
2022-10-28T09:39:50.464Z,16.97
2022-10-28T09:42:35.138Z,16.85
2022-10-28T09:45:04.839Z,16.65
2022-10-28T09:47:37.988Z,16.89
2022-10-28T09:50:08.400Z,16.94
2022-10-28T09:52:56.548Z,17.06
2022-10-28T09:55:23.891Z,17.00
2022-10-28T09:57:51.773Z,16.89
2022-10-28T10:00:19.367Z,17.23
2022-10-28T10:02:47.092Z,17.05
2022-10-28T10:05:17.927Z,17.05
2022-10-28T10:07:53.919Z,16.48
2022-10-28T10:10:27.321Z,17.05
2022-10-28T10:12:59.487Z,17.20
2022-10-28T10:15:32.191Z,17.21
2022-10-28T10:18:00.841Z,17.12
2022-10-28T10:20:28.565Z,16.97
2022-10-28T10:22:56.166Z,17.12
2022-10-28T10:25:29.943Z,17.23
2022-10-28T10:27:59.574Z,17.00
2022-10-28T10:30:38.086Z,17.17
2022-10-28T10:33:05.931Z,16.93
2022-10-28T10:35:37.297Z,17.11
2022-10-28T10:38:09.036Z,17.23
2022-10-28T10:40:48.268Z,17.31
2022-10-28T10:43:18.239Z,17.04
2022-10-28T10:46:03.097Z,17.43
2022-10-28T10:48:36.227Z,17.06
2022-10-28T10:51:23.278Z,16.96
2022-10-28T10:53:52.147Z,17.28
2022-10-28T10:56:30.782Z,17.14
2022-10-28T10:59:06.468Z,17.22
2022-10-28T11:01:38.763Z,17.18
2022-10-28T11:04:06.927Z,17.18
2022-10-28T11:06:37.095Z,17.22
2022-10-28T11:09:06.205Z,17.63
2022-10-28T11:11:40.141Z,17.25
2022-10-28T11:14:10.743Z,17.54
2022-10-28T11:16:54.432Z,17.46
2022-10-28T11:19:23.427Z,17.46
2022-10-28T11:22:13.662Z,17.28
2022-10-28T11:25:18.728Z,17.27
2022-10-28T11:28:24.323Z,16.99
2022-10-28T11:31:00.827Z,17.31
2022-10-28T11:33:50.018Z,17.21
2022-10-28T11:36:28.823Z,17.36
2022-10-28T11:39:05.163Z,17.20
2022-10-28T11:42:07.247Z,16.90
2022-10-28T11:44:54.590Z,17.15
2022-10-28T11:47:37.789Z,17.29
2022-10-28T11:50:08.134Z,17.21
2022-10-28T11:52:49.962Z,17.21
2022-10-28T11:55:36.031Z,17.05
2022-10-28T11:58:21.381Z,16.99
2022-10-28T12:01:04.965Z,17.05
2022-10-28T12:03:51.313Z,17.21
2022-10-28T12:06:32.522Z,16.85
2022-10-28T12:09:34.196Z,16.83
2022-10-28T12:12:10.048Z,16.99
2022-10-28T12:14:40.220Z,17.00
2022-10-28T12:17:18.105Z,16.86
2022-10-28T12:19:59.786Z,17.10
2022-10-28T12:22:29.635Z,17.40
2022-10-28T12:24:57.343Z,17.38
2022-10-28T12:27:30.140Z,16.96
2022-10-28T12:30:01.079Z,17.03
2022-10-28T12:32:30.337Z,16.90
2022-10-28T12:35:18.169Z,17.14
2022-10-28T12:38:15.097Z,17.11
2022-10-28T12:40:59.874Z,17.47
2022-10-28T12:43:33.971Z,17.41
2022-10-28T12:46:01.699Z,17.32
2022-10-28T12:48:45.731Z,17.25
2022-10-28T12:51:34.393Z,17.30
2022-10-28T12:54:10.013Z,17.28
2022-10-28T12:56:38.096Z,17.28
2022-10-28T12:59:30.747Z,17.08
2022-10-28T13:02:01.351Z,17.30
2022-10-28T13:04:28.959Z,17.29
2022-10-28T13:07:10.063Z,17.24
2022-10-28T13:09:43.693Z,17.00
2022-10-28T13:13:12.585Z,16.95
2022-10-28T13:15:59.396Z,17.18
2022-10-28T13:18:54.189Z,17.10
2022-10-28T13:21:33.754Z,17.08
2022-10-28T13:24:13.742Z,17.35
2022-10-28T13:26:42.286Z,17.45
2022-10-28T13:29:21.968Z,16.96
2022-10-28T13:31:49.615Z,16.88
2022-10-28T13:34:18.043Z,17.00
2022-10-28T13:36:46.948Z,16.89
2022-10-28T13:39:29.771Z,16.74
2022-10-28T13:42:16.020Z,16.69
2022-10-28T13:44:56.568Z,17.09
2022-10-28T13:47:34.399Z,16.63
2022-10-28T13:50:09.313Z,16.91
2022-10-28T13:52:41.064Z,16.79
2022-10-28T13:55:41.692Z,16.59
2022-10-28T13:58:20.466Z,16.71
2022-10-28T14:00:50.579Z,16.57
2022-10-28T14:03:22.807Z,16.58
2022-10-28T14:05:52.273Z,16.69
2022-10-28T14:08:31.049Z,16.87
2022-10-28T14:11:04.120Z,16.72
2022-10-28T14:13:38.964Z,16.17
2022-10-28T14:16:38.328Z,16.43
2022-10-28T14:19:11.565Z,16.50
2022-10-28T14:22:05.438Z,16.54
2022-10-28T14:24:37.451Z,16.17
2022-10-28T14:27:08.072Z,16.11
2022-10-28T14:29:48.423Z,16.51
2022-10-28T14:32:31.013Z,16.28
2022-10-28T14:35:19.538Z,16.31
2022-10-28T14:38:02.280Z,16.38
2022-10-28T14:40:44.593Z,16.50
2022-10-28T14:43:23.916Z,16.56
2022-10-28T14:46:04.086Z,16.40
2022-10-28T14:48:47.669Z,16.59
2022-10-28T14:51:20.269Z,16.40
2022-10-28T14:53:48.004Z,16.35
2022-10-28T14:56:30.365Z,16.30
2022-10-28T14:59:19.080Z,16.54
2022-10-28T15:01:59.156Z,16.46
2022-10-28T15:04:26.900Z,16.62
2022-10-28T15:06:54.317Z,16.60
2022-10-28T15:09:32.641Z,16.52
2022-10-28T15:12:12.021Z,16.19
2022-10-28T15:14:52.027Z,16.28
2022-10-28T15:17:27.563Z,16.21
2022-10-28T15:19:56.390Z,16.36
2022-10-28T15:22:25.275Z,16.41
2022-10-28T15:24:56.255Z,16.37
2022-10-28T15:27:24.615Z,16.24
2022-10-28T15:29:52.208Z,16.41
2022-10-28T15:32:19.368Z,16.34
2022-10-28T15:34:47.133Z,16.69
2022-10-28T15:37:21.734Z,16.40
2022-10-28T15:39:50.927Z,16.31
2022-10-28T15:42:40.924Z,16.19
2022-10-28T15:45:24.021Z,16.03
2022-10-28T15:47:51.777Z,16.31
2022-10-28T15:50:19.368Z,16.40
2022-10-28T15:52:52.350Z,16.36
2022-10-28T15:55:21.781Z,16.14
2022-10-28T15:58:19.331Z,16.08
2022-10-28T16:00:54.154Z,16.14
2022-10-28T16:03:25.299Z,16.46
2022-10-28T16:05:55.079Z,16.20
2022-10-28T16:08:31.011Z,16.03
2022-10-28T16:11:04.628Z,16.37
2022-10-28T16:13:42.400Z,16.21
2022-10-28T16:16:13.343Z,16.35
2022-10-28T16:18:47.004Z,16.08
2022-10-28T16:21:18.953Z,16.26
2022-10-28T16:23:49.372Z,16.34
2022-10-28T16:26:18.215Z,16.16
2022-10-28T16:28:46.288Z,16.31
2022-10-28T16:31:16.144Z,16.45
2022-10-28T16:33:45.256Z,16.46
2022-10-28T16:36:13.536Z,15.71
2022-10-28T16:38:41.650Z,15.94
2022-10-28T16:41:17.006Z,16.18
2022-10-28T16:43:45.587Z,16.27
2022-10-28T16:46:14.184Z,16.35
2022-10-28T16:48:42.012Z,16.24
2022-10-28T16:51:16.582Z,16.13
2022-10-28T16:53:47.577Z,15.92
2022-10-28T16:56:16.507Z,15.97
2022-10-28T16:58:44.650Z,16.05
2022-10-28T17:01:12.804Z,16.26
2022-10-28T17:03:41.160Z,16.10
2022-10-28T17:06:10.630Z,16.23
2022-10-28T17:11:25.579Z,16.22
2022-10-28T17:13:52.989Z,16.30
2022-10-28T17:16:20.299Z,16.10
2022-10-28T17:18:49.636Z,16.16
2022-10-28T17:21:17.015Z,16.08
2022-10-28T17:23:44.312Z,16.21
2022-10-28T17:26:11.916Z,16.01
2022-10-28T17:28:39.299Z,16.23
2022-10-28T17:31:07.502Z,16.47
2022-10-28T17:33:35.128Z,16.32
2022-10-28T17:36:06.351Z,16.52
2022-10-28T17:38:33.704Z,16.13
2022-10-28T17:41:01.593Z,16.28
2022-10-28T17:43:28.973Z,16.07
2022-10-28T17:46:06.243Z,16.25
2022-10-28T17:48:34.189Z,16.62
2022-10-28T17:51:01.614Z,16.08
2022-10-28T17:53:28.977Z,16.27
2022-10-28T17:55:57.658Z,15.85
2022-10-28T17:58:25.109Z,16.03
2022-10-28T18:00:59.496Z,16.00
2022-10-28T18:03:27.162Z,16.28
2022-10-28T18:05:54.674Z,15.94
2022-10-28T18:08:22.281Z,16.05
2022-10-28T18:10:56.690Z,16.06
2022-10-28T18:13:28.041Z,16.12
2022-10-28T18:15:56.367Z,16.31
2022-10-28T18:18:26.689Z,16.16
2022-10-28T18:20:54.456Z,16.36
2022-10-28T18:23:25.051Z,16.27
2022-10-28T18:26:02.527Z,16.55
2022-10-28T18:28:30.648Z,16.40
2022-10-28T18:31:08.164Z,16.21
2022-10-28T18:33:35.831Z,15.99
2022-10-28T18:36:07.477Z,16.26
2022-10-28T18:38:34.832Z,16.30
2022-10-28T18:41:02.528Z,16.42
2022-10-28T18:43:29.879Z,16.57
2022-10-28T18:46:00.998Z,16.31
2022-10-28T18:48:28.706Z,16.31
2022-10-28T18:51:00.395Z,16.41
2022-10-28T18:53:27.926Z,16.46
2022-10-28T18:56:01.448Z,16.57
2022-10-28T18:58:28.865Z,16.43
2022-10-28T19:01:06.437Z,16.13
2022-10-28T19:03:33.832Z,16.26
2022-10-28T19:06:06.165Z,16.30
2022-10-28T19:08:33.733Z,16.42
2022-10-28T19:11:01.644Z,16.31
2022-10-28T19:13:29.131Z,16.46
2022-10-28T19:15:56.555Z,15.85
2022-10-28T19:18:24.228Z,15.90
2022-10-28T19:20:52.118Z,16.01
2022-10-28T19:23:19.517Z,16.18
2022-10-28T19:25:54.556Z,16.19
2022-10-28T19:28:22.011Z,15.82
2022-10-28T19:30:49.685Z,16.05
2022-10-28T19:33:17.019Z,15.81
2022-10-28T19:35:44.379Z,16.01
2022-10-28T19:38:11.992Z,16.27
2022-10-28T19:40:39.294Z,15.62
2022-10-28T19:43:06.631Z,15.91
2022-10-28T19:45:34.207Z,15.91
2022-10-28T19:48:01.985Z,15.80
2022-10-28T19:50:29.304Z,15.80
2022-10-28T19:52:56.927Z,15.93
2022-10-28T19:55:24.287Z,15.88
2022-10-28T19:57:52.920Z,16.13
2022-10-28T20:00:20.771Z,16.11
2022-10-28T20:02:48.442Z,16.11
2022-10-28T20:05:15.883Z,16.21
2022-10-28T20:07:44.659Z,16.42
2022-10-28T20:10:12.262Z,16.23
2022-10-28T20:12:39.571Z,16.21
2022-10-28T20:15:07.459Z,16.08
2022-10-28T20:17:35.055Z,16.34
2022-10-28T20:20:02.383Z,16.28
2022-10-28T20:22:29.804Z,15.83
2022-10-28T20:24:57.414Z,15.91
2022-10-28T20:27:24.755Z,16.00
2022-10-28T20:29:52.329Z,15.87
2022-10-28T20:32:22.344Z,16.07
2022-10-28T20:34:49.720Z,16.14
2022-10-28T20:37:17.046Z,16.39
2022-10-28T20:39:44.627Z,16.29
2022-10-28T20:42:11.945Z,16.15
2022-10-28T20:44:39.266Z,16.27
2022-10-28T20:47:06.884Z,15.87
2022-10-28T20:49:34.244Z,16.01
2022-10-28T20:52:01.580Z,15.77
2022-10-28T20:54:29.183Z,16.24
2022-10-28T20:56:56.523Z,15.92
2022-10-28T20:59:23.927Z,16.17
2022-10-28T21:01:51.728Z,15.62
2022-10-28T21:04:19.243Z,16.05
2022-10-28T21:06:46.612Z,16.08
2022-10-28T21:09:14.247Z,15.92
2022-10-28T21:11:44.883Z,16.16
2022-10-28T21:14:12.227Z,16.29
2022-10-28T21:16:39.938Z,16.05
2022-10-28T21:19:07.304Z,16.02
2022-10-28T21:21:34.678Z,16.43
2022-10-28T21:24:02.331Z,16.17
2022-10-28T21:26:29.685Z,16.20
2022-10-28T21:28:57.080Z,16.42
2022-10-28T21:31:24.765Z,15.95
2022-10-28T21:33:53.019Z,16.20
2022-10-28T21:36:21.152Z,15.80
2022-10-28T21:38:48.773Z,16.10
2022-10-28T21:41:16.811Z,15.87
2022-10-28T21:43:45.467Z,15.86
2022-10-28T21:46:13.100Z,15.74
2022-10-28T21:48:40.442Z,15.87
2022-10-28T21:51:11.833Z,16.00
2022-10-28T21:53:42.999Z,16.42
2022-10-28T21:56:17.514Z,16.17
2022-10-28T21:58:47.113Z,16.11
2022-10-28T22:01:19.893Z,16.25
2022-10-28T22:03:47.595Z,16.00
2022-10-28T22:06:14.981Z,16.30
2022-10-28T22:08:42.375Z,16.63
2022-10-28T22:11:12.369Z,16.03
2022-10-28T22:13:39.691Z,15.99
2022-10-28T22:16:08.569Z,16.25
2022-10-28T22:18:36.430Z,16.21
2022-10-28T22:21:07.800Z,16.17
2022-10-28T22:23:35.493Z,16.04
2022-10-28T22:26:07.367Z,16.11
2022-10-28T22:28:34.777Z,16.21
2022-10-28T22:31:03.893Z,16.10
2022-10-28T22:33:31.599Z,16.17
2022-10-28T22:36:03.681Z,16.37
2022-10-28T22:38:31.085Z,16.15
2022-10-28T22:41:03.531Z,16.07
2022-10-28T22:43:30.859Z,16.16
2022-10-28T22:45:58.765Z,15.99
2022-10-28T22:48:26.453Z,15.97
2022-10-28T22:50:53.786Z,15.85
2022-10-28T22:53:21.187Z,15.78
2022-10-28T22:55:48.888Z,15.95
2022-10-28T22:58:16.547Z,16.03
2022-10-28T23:00:44.150Z,16.15
2022-10-28T23:03:12.341Z,16.20
2022-10-28T23:05:39.916Z,16.38
2022-10-28T23:08:07.362Z,16.28
2022-10-28T23:10:34.954Z,16.19
2022-10-28T23:13:02.496Z,16.27
2022-10-28T23:15:29.872Z,16.23
2022-10-28T23:17:57.745Z,15.92
2022-10-28T23:20:25.449Z,15.83
2022-10-28T23:22:55.379Z,15.84
2022-10-28T23:25:22.955Z,15.85
2022-10-28T23:27:50.277Z,16.05
2022-10-28T23:30:17.619Z,15.97
2022-10-28T23:32:45.176Z,16.08
2022-10-28T23:35:12.503Z,15.62
2022-10-28T23:37:39.841Z,15.86
2022-10-28T23:42:42.296Z,16.23
2022-10-28T23:45:09.996Z,16.19
2022-10-28T23:47:37.304Z,15.98
2022-10-28T23:50:04.920Z,15.70
2022-10-28T23:52:32.492Z,16.37
2022-10-28T23:54:59.836Z,16.08
2022-10-28T23:57:27.187Z,16.19
2022-10-28T23:59:54.763Z,15.91
